LIRZ/PEG METAR and TAF weather

Enter ICAO airport designator
Station Type Date Time Source
LIRZ METAR 2019/10/23 01:50 UTC NOAA

LIRZ 230150Z AUTO 01007KT 9999 NCD 14/13 Q1020


Station Type Date Time Source
LIRZ Decoded METAR 2019/10/23 01:50 UTC NOAA

Perugia, Italy (LIRZ) 43-05N 012-30E 205M
Oct 22, 2019 - 09:50 PM EDT / 2019.10.23 0150 UTC
Wind: from the N (010 degrees) at 8 MPH (7 KT):0
Visibility: greater than 7 mile(s):0
Temperature: 57 F (14 C)
Dew Point: 55 F (13 C)
Relative Humidity: 93%
Pressure (altimeter): 30.12 in. Hg (1020 hPa)
ob: LIRZ 230150Z AUTO 01007KT 9999 NCD 14/13 Q1020
cycle: 2

Station Type Date Time Source
LIRZ TAF 2019/10/22 18:21 UTC NOAA

TAF LIRZ 221700Z 2218/2318 VRB05KT CAVOK

Example: see airport list